Time;durP1;ratioP1;P1;durP2;ratioP2;P2;SDS_P1;SDS_P2;PMS_P1;PMS_P2;Temp;Humidity;BMP_temperature;BMP_pressure;BME280_temperature;BME280_humidity;BME280_pressure;Samples;Min_cycle;Max_cycle;Signal;HPM_P1;HPM_P2
2022/07/23 00:00:15;;;;;;;1.73;1.57;;;22.20;99.90;;;;;;1042913;28;20052;-67
2022/07/23 00:00:46;;;;;;;2.10;1.55;;;22.20;99.90;;;;;;1038762;28;20017;-68
2022/07/23 00:01:17;;;;;;;3.00;1.40;;;22.20;99.90;;;;;;1038959;28;20021;-67
2022/07/23 00:01:47;;;;;;;1.00;0.90;;;22.20;99.90;;;;;;1038747;28;20092;-67
2022/07/23 00:02:18;;;;;;;1.93;1.40;;;22.20;99.90;;;;;;1041266;28;20041;-67
2022/07/23 00:02:49;;;;;;;1.77;1.50;;;22.20;99.90;;;;;;1043413;28;20100;-67
2022/07/23 00:03:19;;;;;;;2.77;1.17;;;22.20;99.90;;;;;;1042744;28;20835;-67
2022/07/23 00:03:51;;;;;;;1.40;1.00;;;22.20;99.90;;;;;;1038734;28;20025;-67
2022/07/23 00:04:22;;;;;;;1.63;1.20;;;22.10;99.90;;;;;;1038981;28;20017;-67
2022/07/23 00:04:52;;;;;;;1.40;1.27;;;22.20;99.90;;;;;;1038909;28;20018;-67
2022/07/23 00:05:23;;;;;;;1.63;1.47;;;22.10;99.90;;;;;;1039125;28;20612;-67
2022/07/23 00:05:54;;;;;;;2.20;1.10;;;22.10;99.90;;;;;;1039067;28;20029;-67
2022/07/23 00:06:24;;;;;;;3.13;1.63;;;22.10;99.90;;;;;;1039400;28;20701;-67
2022/07/23 00:06:55;;;;;;;2.37;1.53;;;22.10;99.90;;;;;;1038777;28;20021;-67
2022/07/23 00:07:25;;;;;;;1.43;1.23;;;22.10;99.90;;;;;;1039040;28;20705;-67
2022/07/23 00:07:56;;;;;;;1.63;1.53;;;22.10;99.90;;;;;;1038789;28;20120;-67
2022/07/23 00:08:26;;;;;;;1.77;1.30;;;22.10;99.90;;;;;;1039125;28;20010;-67
2022/07/23 00:08:57;;;;;;;1.57;1.07;;;22.10;99.90;;;;;;1038746;28;20009;-67
2022/07/23 00:09:30;;;;;;;1.50;1.17;;;22.10;99.90;;;;;;1039020;28;20092;-67
2022/07/23 00:10:01;;;;;;;1.27;1.17;;;22.10;99.90;;;;;;1038958;28;20029;-67
2022/07/23 00:10:32;;;;;;;1.53;1.30;;;22.10;99.90;;;;;;1039507;28;20016;-67
2022/07/23 00:11:03;;;;;;;2.20;1.23;;;22.10;99.90;;;;;;1039158;28;20006;-67
2022/07/23 00:11:34;;;;;;;2.03;1.37;;;22.10;99.90;;;;;;1038852;28;20067;-66
2022/07/23 00:12:05;;;;;;;1.60;1.40;;;22.00;99.90;;;;;;1038749;28;20634;-67
2022/07/23 00:12:36;;;;;;;1.93;1.20;;;22.00;99.90;;;;;;1039048;28;20033;-67
2022/07/23 00:13:06;;;;;;;1.67;1.58;;;22.00;99.90;;;;;;1038660;28;20244;-67
2022/07/23 00:13:37;;;;;;;1.73;1.30;;;22.00;99.90;;;;;;1039054;28;20112;-67
2022/07/23 00:14:07;;;;;;;2.80;1.80;;;22.00;99.90;;;;;;1038694;28;20501;-67
2022/07/23 00:14:38;;;;;;;2.10;1.50;;;22.00;99.90;;;;;;1038944;28;20049;-67
2022/07/23 00:15:10;;;;;;;1.53;1.43;;;22.00;99.90;;;;;;1038768;28;20021;-67
2022/07/23 00:15:41;;;;;;;1.40;1.30;;;22.00;99.90;;;;;;1038971;28;20010;-67
2022/07/23 00:16:11;;;;;;;1.40;1.17;;;22.00;99.90;;;;;;1039131;28;20116;-67
2022/07/23 00:16:42;;;;;;;1.30;1.20;;;22.00;99.90;;;;;;1038813;28;20017;-67
2022/07/23 00:17:12;;;;;;;1.57;1.27;;;22.00;99.90;;;;;;1044657;28;20020;-67
2022/07/23 00:17:43;;;;;;;1.87;1.53;;;22.00;99.90;;;;;;1047107;28;20021;-67
2022/07/23 00:18:13;;;;;;;1.43;1.10;;;22.00;99.90;;;;;;1047113;28;20023;-67
2022/07/23 00:18:44;;;;;;;1.97;1.30;;;22.00;99.90;;;;;;1047174;28;20028;-67
2022/07/23 00:19:14;;;;;;;1.50;1.40;;;22.00;99.90;;;;;;1047404;28;20047;-67
2022/07/23 00:19:45;;;;;;;1.20;1.10;;;22.00;99.90;;;;;;1047399;28;20028;-67
2022/07/23 00:20:16;;;;;;;2.57;1.30;;;22.00;99.90;;;;;;1047489;28;20051;-67
2022/07/23 00:20:46;;;;;;;1.47;1.37;;;22.00;99.90;;;;;;1047366;28;20557;-67
2022/07/23 00:21:17;;;;;;;1.50;1.40;;;22.00;99.90;;;;;;1047553;28;20150;-66
2022/07/23 00:21:47;;;;;;;1.10;1.00;;;22.00;99.90;;;;;;1047378;28;20035;-66
2022/07/23 00:22:18;;;;;;;1.30;1.03;;;22.00;99.90;;;;;;1047469;28;20020;-66
2022/07/23 00:22:50;;;;;;;1.40;1.30;;;22.00;99.90;;;;;;1047409;28;20044;-66
2022/07/23 00:23:21;;;;;;;2.20;1.50;;;22.00;99.90;;;;;;1047559;28;20008;-66
2022/07/23 00:23:52;;;;;;;1.80;1.40;;;22.00;99.90;;;;;;1047249;28;20017;-66
2022/07/23 00:24:22;;;;;;;1.60;1.30;;;22.00;99.90;;;;;;1047682;28;20427;-65
2022/07/23 00:24:53;;;;;;;1.43;1.10;;;22.00;99.90;;;;;;1047207;28;20021;-66
2022/07/23 00:25:24;;;;;;;1.40;1.20;;;22.00;99.90;;;;;;1047590;28;20027;-66
2022/07/23 00:25:55;;;;;;;1.50;1.40;;;22.00;99.90;;;;;;1047272;28;20016;-66
2022/07/23 00:26:25;;;;;;;1.75;1.20;;;22.00;99.90;;;;;;1047591;28;20056;-66
2022/07/23 00:26:56;;;;;;;1.50;1.40;;;22.00;99.90;;;;;;1047197;28;20017;-66
2022/07/23 00:27:26;;;;;;;1.43;1.23;;;22.00;99.90;;;;;;1047249;28;20590;-66
2022/07/23 00:28:00;;;;;;;2.50;1.53;;;22.00;99.90;;;;;;1046845;28;20073;-66
2022/07/23 00:28:31;;;;;;;2.17;1.38;;;22.00;99.90;;;;;;1047160;28;20345;-66
2022/07/23 00:29:01;;;;;;;2.17;1.60;;;22.00;99.90;;;;;;1046893;28;20463;-66
2022/07/23 00:29:32;;;;;;;1.43;1.30;;;22.00;99.90;;;;;;1047099;28;20408;-66
2022/07/23 00:30:03;;;;;;;1.87;1.20;;;22.00;99.90;;;;;;1047006;28;20012;-66
2022/07/23 00:30:34;;;;;;;1.25;1.15;;;22.00;99.90;;;;;;1047150;28;20040;-66
2022/07/23 00:31:04;;;;;;;1.63;1.37;;;22.00;99.90;;;;;;1046945;28;20009;-66
2022/07/23 00:31:35;;;;;;;1.63;1.53;;;22.00;99.90;;;;;;1047464;28;20009;-68
2022/07/23 00:32:06;;;;;;;1.77;1.43;;;22.00;99.90;;;;;;1047246;28;20012;-66
2022/07/23 00:33:01;;;;;;;1.90;1.40;;;22.00;99.90;;;;;;1047599;28;20112;-65
2022/07/23 00:33:31;;;;;;;2.42;1.90;;;22.00;99.90;;;;;;1047542;28;20356;-66
2022/07/23 00:34:02;;;;;;;1.60;1.23;;;22.00;99.90;;;;;;1047360;28;20636;-66
2022/07/23 00:34:32;;;;;;;1.33;1.23;;;22.00;99.90;;;;;;1046988;28;20754;-65
2022/07/23 00:35:03;;;;;;;1.23;1.13;;;22.00;99.90;;;;;;1047039;28;20108;-65
2022/07/23 00:35:40;;;;;;;1.40;1.30;;;22.00;99.90;;;;;;1046752;28;20719;-66
2022/07/23 00:36:10;;;;;;;1.42;1.30;;;22.00;99.90;;;;;;1046954;28;20032;-66
2022/07/23 00:36:41;;;;;;;1.20;1.10;;;21.90;99.90;;;;;;1047234;28;20025;-66
2022/07/23 00:37:11;;;;;;;2.00;1.40;;;22.00;99.90;;;;;;1047088;28;20486;-66
2022/07/23 00:37:42;;;;;;;1.27;1.17;;;21.90;99.90;;;;;;1046891;28;20024;-65
2022/07/23 00:38:13;;;;;;;3.73;1.63;;;21.90;99.90;;;;;;1047190;28;20103;-65
2022/07/23 00:38:43;;;;;;;1.57;1.47;;;21.90;99.90;;;;;;1047155;28;20044;-66
2022/07/23 00:39:14;;;;;;;1.43;1.33;;;21.90;99.90;;;;;;1047077;28;20255;-66
2022/07/23 00:39:44;;;;;;;2.03;1.53;;;21.90;99.90;;;;;;1043787;28;20522;-66
2022/07/23 00:40:15;;;;;;;1.47;1.37;;;21.90;99.90;;;;;;1042753;28;20025;-66
2022/07/23 00:40:46;;;;;;;3.00;1.38;;;21.90;99.90;;;;;;1041333;28;20111;-66
2022/07/23 00:41:17;;;;;;;1.53;1.43;;;21.90;99.90;;;;;;1038819;28;20029;-66
2022/07/23 00:41:48;;;;;;;3.60;1.77;;;21.90;99.90;;;;;;1038535;28;20017;-66
2022/07/23 00:42:18;;;;;;;1.52;1.25;;;21.90;99.90;;;;;;1038829;28;20738;-66
2022/07/23 00:42:49;;;;;;;1.90;1.20;;;21.90;99.90;;;;;;1038700;28;20520;-66
2022/07/23 00:43:21;;;;;;;3.05;1.48;;;21.90;99.90;;;;;;1038816;28;20504;-66
2022/07/23 00:43:52;;;;;;;3.60;1.50;;;21.90;99.90;;;;;;1038630;28;20060;-66
2022/07/23 00:44:25;;;;;;;1.43;1.20;;;21.90;99.90;;;;;;1039281;28;20013;-66
2022/07/23 00:44:56;;;;;;;2.40;1.58;;;21.90;99.90;;;;;;1038868;28;20022;-66
2022/07/23 00:45:27;;;;;;;1.77;1.33;;;21.90;99.90;;;;;;1039273;28;20029;-66
2022/07/23 00:45:58;;;;;;;1.20;1.10;;;21.90;99.90;;;;;;1038681;28;20054;-66
2022/07/23 00:46:28;;;;;;;1.70;1.60;;;21.80;99.90;;;;;;1038935;28;20028;-66
2022/07/23 00:46:59;;;;;;;1.93;1.63;;;21.90;99.90;;;;;;1038692;28;20610;-66
2022/07/23 00:47:30;;;;;;;3.43;1.40;;;21.90;99.90;;;;;;1038945;28;20024;-66
2022/07/23 00:48:01;;;;;;;1.50;1.40;;;21.90;99.90;;;;;;1038422;28;20018;-66
2022/07/23 00:48:31;;;;;;;2.13;1.67;;;21.90;99.90;;;;;;1039025;28;20052;-66
2022/07/23 00:49:02;;;;;;;1.20;1.10;;;21.90;99.90;;;;;;1038405;28;20845;-66
2022/07/23 00:49:32;;;;;;;1.50;1.40;;;21.80;99.90;;;;;;1039029;28;20477;-66
2022/07/23 00:50:05;;;;;;;1.87;1.43;;;21.90;99.90;;;;;;1038614;28;20024;-66
2022/07/23 00:50:36;;;;;;;1.92;1.52;;;21.90;99.90;;;;;;1038842;28;20026;-66
2022/07/23 00:51:06;;;;;;;3.30;1.57;;;21.90;99.90;;;;;;1038937;28;20018;-66
2022/07/23 00:51:37;;;;;;;2.27;1.40;;;21.80;99.90;;;;;;1038730;28;20033;-66
2022/07/23 00:52:08;;;;;;;1.60;1.50;;;21.80;99.90;;;;;;1038649;28;20018;-65
2022/07/23 00:52:39;;;;;;;1.30;1.20;;;21.80;99.90;;;;;;1038915;28;20163;-65
2022/07/23 00:53:10;;;;;;;1.80;1.50;;;21.80;99.90;;;;;;1038573;28;20541;-65
2022/07/23 00:53:41;;;;;;;1.47;1.37;;;21.80;99.90;;;;;;1038891;28;20026;-65
2022/07/23 00:54:12;;;;;;;2.90;1.88;;;21.80;99.90;;;;;;1038659;28;20021;-65
2022/07/23 00:54:42;;;;;;;2.10;1.30;;;21.80;99.90;;;;;;1039281;28;20033;-65
2022/07/23 00:55:14;;;;;;;2.43;1.87;;;21.80;99.90;;;;;;1038408;28;20473;-65
2022/07/23 00:55:45;;;;;;;1.52;1.00;;;21.80;99.90;;;;;;1039206;28;20045;-65
2022/07/23 00:56:15;;;;;;;3.30;1.63;;;21.80;99.90;;;;;;1038924;28;20028;-66
2022/07/23 00:56:47;;;;;;;2.07;1.50;;;21.80;99.90;;;;;;1038887;28;20456;-65
2022/07/23 00:57:18;;;;;;;2.60;1.77;;;21.80;99.90;;;;;;1038452;28;20678;-65
2022/07/23 00:57:50;;;;;;;3.10;2.15;;;21.80;99.90;;;;;;1038975;28;20136;-65
2022/07/23 00:58:20;;;;;;;1.73;1.45;;;21.80;99.90;;;;;;1038416;28;20022;-65
2022/07/23 00:58:51;;;;;;;1.87;1.33;;;21.80;99.90;;;;;;1039371;28;20021;-65
2022/07/23 00:59:22;;;;;;;1.30;1.20;;;21.80;99.90;;;;;;1038804;28;20472;-66
2022/07/23 00:59:53;;;;;;;2.20;1.20;;;21.80;99.90;;;;;;1039180;28;20025;-66
2022/07/23 01:00:23;;;;;;;3.20;1.40;;;21.80;99.90;;;;;;1038920;28;20022;-65
2022/07/23 01:00:54;;;;;;;1.60;1.50;;;21.80;99.90;;;;;;1039149;28;20026;-67
2022/07/23 01:01:24;;;;;;;2.07;1.10;;;21.80;99.90;;;;;;1038905;28;20025;-66
2022/07/23 01:01:55;;;;;;;2.67;1.50;;;21.80;99.90;;;;;;1038693;28;20025;-65
2022/07/23 01:02:27;;;;;;;2.27;1.40;;;21.80;99.90;;;;;;1041893;28;20072;-66
2022/07/23 01:02:57;;;;;;;1.73;1.55;;;21.80;99.90;;;;;;1042762;28;20025;-65
2022/07/23 01:03:28;;;;;;;2.23;1.67;;;21.80;99.90;;;;;;1042949;28;20017;-67
2022/07/23 01:03:59;;;;;;;2.03;1.50;;;21.80;99.90;;;;;;1042570;28;20024;-65
2022/07/23 01:04:29;;;;;;;2.27;1.30;;;21.80;99.90;;;;;;1043102;28;20070;-65
2022/07/23 01:05:00;;;;;;;1.50;1.30;;;21.80;99.90;;;;;;1042590;28;20075;-66
2022/07/23 01:05:30;;;;;;;1.80;1.43;;;21.80;99.90;;;;;;1043014;28;20028;-65
2022/07/23 01:06:01;;;;;;;1.87;1.43;;;21.80;99.90;;;;;;1042899;28;20491;-65
2022/07/23 01:06:36;;;;;;;1.30;1.20;;;21.80;99.90;;;;;;1043270;28;20013;-67
2022/07/23 01:07:07;;;;;;;1.35;1.23;;;21.80;99.90;;;;;;1042622;28;20025;-65
2022/07/23 01:07:38;;;;;;;2.17;1.48;;;21.80;99.90;;;;;;1042940;28;20109;-66
2022/07/23 01:08:08;;;;;;;2.67;1.63;;;21.80;99.90;;;;;;1042669;28;20024;-65
2022/07/23 01:08:39;;;;;;;2.00;1.50;;;21.80;99.90;;;;;;1042942;28;20082;-65
2022/07/23 01:09:09;;;;;;;1.30;1.20;;;21.80;99.90;;;;;;1043113;28;20070;-66
2022/07/23 01:09:40;;;;;;;1.40;1.30;;;21.80;99.90;;;;;;1043332;28;20029;-67
2022/07/23 01:11:00;;;;;;;1.98;1.55;;;21.80;99.90;;;;;;1042539;28;20599;-67
2022/07/23 01:11:36;;;;;;;1.40;1.30;;;21.80;99.90;;;;;;1042986;28;20480;-67
2022/07/23 01:12:07;;;;;;;1.73;1.35;;;21.80;99.90;;;;;;1042990;28;20455;-67
2022/07/23 01:12:37;;;;;;;1.40;1.08;;;21.80;99.90;;;;;;1043352;28;20488;-67
2022/07/23 01:13:10;;;;;;;1.87;1.40;;;21.80;99.90;;;;;;1042656;28;20052;-65
2022/07/23 01:13:43;;;;;;;1.85;1.58;;;21.80;99.90;;;;;;1043202;28;20457;-66
2022/07/23 01:14:16;;;;;;;2.08;1.30;;;21.80;99.90;;;;;;1042964;28;20036;-67
2022/07/23 01:14:57;;;;;;;5.07;1.60;;;21.80;99.90;;;;;;1043390;28;20470;-67
2022/07/23 01:15:28;;;;;;;1.48;1.30;;;21.80;99.90;;;;;;1043120;28;20524;-67
2022/07/23 01:15:59;;;;;;;1.83;1.40;;;21.80;99.90;;;;;;1043014;28;20163;-66
2022/07/23 01:16:30;;;;;;;1.77;1.20;;;21.80;99.90;;;;;;1043010;28;20353;-66
2022/07/23 01:17:00;;;;;;;3.57;1.60;;;21.80;99.90;;;;;;1043226;28;20021;-67
2022/07/23 01:17:31;;;;;;;3.53;1.50;;;21.80;99.90;;;;;;1042568;28;20017;-67
2022/07/23 01:18:03;;;;;;;1.87;1.40;;;21.80;99.90;;;;;;1042686;28;20017;-67
2022/07/23 01:18:34;;;;;;;2.67;1.48;;;21.80;99.90;;;;;;1042693;28;20017;-66
2022/07/23 01:19:06;;;;;;;2.70;1.20;;;21.80;99.90;;;;;;1042747;28;20053;-66
2022/07/23 01:19:36;;;;;;;2.30;1.58;;;21.80;99.90;;;;;;1042836;28;20057;-67
2022/07/23 01:20:07;;;;;;;2.10;1.30;;;21.80;99.90;;;;;;1043338;28;20379;-67
2022/07/23 01:20:38;;;;;;;1.33;1.23;;;21.70;99.90;;;;;;1042579;28;20105;-65
2022/07/23 01:21:14;;;;;;;1.97;1.40;;;21.70;99.90;;;;;;1042749;28;20376;-67
2022/07/23 01:21:51;;;;;;;1.80;1.52;;;21.70;99.90;;;;;;1043073;28;20107;-66
2022/07/23 01:22:23;;;;;;;2.08;1.40;;;21.70;99.90;;;;;;1043191;28;20079;-67
2022/07/23 01:22:53;;;;;;;1.70;1.60;;;21.70;99.90;;;;;;1043004;28;20017;-67
2022/07/23 01:23:24;;;;;;;1.63;1.40;;;21.70;99.90;;;;;;1043211;28;20029;-67
2022/07/23 01:23:54;;;;;;;2.03;1.33;;;21.70;99.90;;;;;;1042932;28;20021;-67
2022/07/23 01:24:25;;;;;;;2.43;1.40;;;21.70;99.90;;;;;;1043355;28;20029;-67
2022/07/23 01:24:55;;;;;;;2.33;1.80;;;21.70;99.90;;;;;;1042908;28;20108;-65
2022/07/23 01:25:26;;;;;;;4.73;1.43;;;21.70;99.90;;;;;;1042930;28;20063;-66
2022/07/23 01:25:57;;;;;;;1.90;1.27;;;21.70;99.90;;;;;;1042476;28;20393;-66
2022/07/23 01:26:27;;;;;;;1.87;1.40;;;21.70;99.90;;;;;;1042901;28;20027;-66
2022/07/23 01:26:58;;;;;;;2.17;1.87;;;21.70;99.90;;;;;;1042555;28;20019;-66
2022/07/23 01:27:28;;;;;;;3.17;1.50;;;21.70;99.90;;;;;;1042790;28;20484;-67
2022/07/23 01:27:59;;;;;;;1.50;1.40;;;21.70;99.90;;;;;;1042450;28;20009;-66
2022/07/23 01:28:30;;;;;;;1.60;1.37;;;21.70;99.90;;;;;;1042743;28;20009;-67
2022/07/23 01:29:00;;;;;;;3.43;1.20;;;21.70;99.90;;;;;;1042534;28;20013;-67
2022/07/23 01:29:31;;;;;;;1.50;1.40;;;21.70;99.90;;;;;;1043007;28;20040;-67
2022/07/23 01:30:03;;;;;;;1.60;1.37;;;21.70;99.90;;;;;;1042462;28;20013;-67
2022/07/23 01:30:34;;;;;;;1.45;1.35;;;21.70;99.90;;;;;;1042850;28;20562;-67
2022/07/23 01:31:04;;;;;;;2.30;1.30;;;21.70;99.90;;;;;;1042557;28;20686;-67
2022/07/23 01:31:35;;;;;;;2.00;1.40;;;21.70;99.90;;;;;;1042918;28;20096;-67
2022/07/23 01:32:06;;;;;;;2.30;1.57;;;21.70;99.90;;;;;;1040403;28;20017;-67
2022/07/23 01:32:36;;;;;;;2.40;1.60;;;21.70;99.90;;;;;;1039129;28;20025;-66
2022/07/23 01:33:08;;;;;;;1.50;1.40;;;21.60;99.90;;;;;;1038702;28;20427;-67
2022/07/23 01:33:38;;;;;;;2.08;1.15;;;21.60;99.90;;;;;;1039163;28;20586;-66
2022/07/23 01:34:09;;;;;;;1.47;1.37;;;21.60;99.90;;;;;;1038828;28;20523;-65
2022/07/23 01:34:40;;;;;;;2.22;1.35;;;21.60;99.90;;;;;;1039183;28;20033;-66
2022/07/23 01:35:11;;;;;;;2.15;1.50;;;21.60;99.90;;;;;;1038543;28;20021;-66
2022/07/23 01:35:42;;;;;;;1.60;1.48;;;21.60;99.90;;;;;;1035473;28;20053;-67
2022/07/23 01:36:12;;;;;;;1.70;1.40;;;21.60;99.90;;;;;;1038399;28;20661;-66
2022/07/23 01:36:43;;;;;;;1.10;1.00;;;21.70;99.90;;;;;;1038809;28;20030;-67
2022/07/23 01:37:14;;;;;;;2.07;1.30;;;21.60;99.90;;;;;;1038109;28;20013;-66
2022/07/23 01:37:44;;;;;;;1.77;1.43;;;21.60;99.90;;;;;;1038896;28;20029;-66
2022/07/23 01:38:15;;;;;;;1.40;1.10;;;21.60;99.90;;;;;;1038365;28;20021;-66
2022/07/23 01:38:45;;;;;;;1.77;1.47;;;21.60;99.90;;;;;;1038701;28;20021;-66
2022/07/23 01:39:16;;;;;;;2.27;1.50;;;21.70;99.90;;;;;;1038377;28;20017;-67
2022/07/23 01:39:47;;;;;;;1.33;1.13;;;21.60;99.90;;;;;;1038533;28;20033;-66
2022/07/23 01:40:17;;;;;;;1.67;1.20;;;21.70;99.90;;;;;;1038314;28;20029;-66
2022/07/23 01:40:48;;;;;;;1.47;1.17;;;21.70;99.90;;;;;;1038805;28;20024;-66
2022/07/23 01:41:19;;;;;;;1.23;1.13;;;21.70;99.90;;;;;;1038457;28;20017;-66
2022/07/23 01:41:49;;;;;;;1.57;1.47;;;21.70;99.90;;;;;;1038631;28;20028;-66
2022/07/23 01:42:20;;;;;;;4.33;1.50;;;21.70;99.90;;;;;;1039114;28;20461;-66
2022/07/23 01:42:51;;;;;;;1.33;1.20;;;21.70;99.90;;;;;;1038408;28;20030;-66
2022/07/23 01:43:21;;;;;;;2.17;1.40;;;21.70;99.90;;;;;;1038596;28;20113;-66
2022/07/23 01:43:52;;;;;;;1.60;1.30;;;21.70;99.90;;;;;;1038479;28;20061;-67
2022/07/23 01:44:22;;;;;;;1.97;1.43;;;21.70;99.90;;;;;;1038540;28;20013;-66
2022/07/23 01:44:53;;;;;;;1.40;1.07;;;21.70;99.90;;;;;;1038820;28;20084;-66
2022/07/23 01:45:24;;;;;;;1.77;1.37;;;21.70;99.90;;;;;;1039055;28;20014;-66
2022/07/23 01:45:54;;;;;;;1.50;1.40;;;21.70;99.90;;;;;;1038406;28;20018;-66
2022/07/23 01:46:25;;;;;;;1.90;1.33;;;21.70;99.90;;;;;;1038878;28;20720;-66
2022/07/23 01:46:56;;;;;;;3.20;1.60;;;21.70;99.90;;;;;;1038339;28;20014;-66
2022/07/23 01:47:27;;;;;;;1.83;1.40;;;21.70;99.90;;;;;;1038927;28;20758;-66
2022/07/23 01:47:57;;;;;;;1.40;1.30;;;21.70;99.90;;;;;;1038335;28;20877;-66
2022/07/23 01:48:29;;;;;;;2.83;1.50;;;21.70;99.90;;;;;;1038859;28;20029;-66
2022/07/23 01:48:59;;;;;;;2.58;1.65;;;21.70;99.90;;;;;;1038709;28;20018;-67
2022/07/23 01:49:30;;;;;;;2.77;1.70;;;21.70;99.90;;;;;;1039116;28;20048;-66
2022/07/23 01:50:00;;;;;;;1.97;1.40;;;21.60;99.90;;;;;;1038657;28;20020;-66
2022/07/23 01:50:31;;;;;;;1.50;1.40;;;21.60;99.90;;;;;;1039196;28;20433;-66
2022/07/23 01:51:01;;;;;;;1.63;1.40;;;21.60;99.90;;;;;;1038689;28;20017;-66
2022/07/23 01:51:32;;;;;;;1.83;1.47;;;21.60;99.90;;;;;;1039070;28;20022;-66
2022/07/23 01:52:06;;;;;;;1.40;1.30;;;21.60;99.90;;;;;;1038510;28;20027;-66
2022/07/23 01:52:37;;;;;;;1.80;1.58;;;21.60;99.90;;;;;;1038519;28;20026;-66
2022/07/23 01:53:07;;;;;;;3.03;1.30;;;21.60;99.90;;;;;;1034219;28;20041;-67
2022/07/23 01:53:38;;;;;;;1.50;1.30;;;21.60;99.90;;;;;;1034629;28;20509;-66
2022/07/23 01:54:09;;;;;;;1.33;1.23;;;21.60;99.90;;;;;;1034453;28;20045;-66
2022/07/23 01:54:39;;;;;;;3.60;1.77;;;21.60;99.90;;;;;;1038685;28;20029;-66
2022/07/23 01:55:10;;;;;;;2.13;1.67;;;21.60;99.90;;;;;;1038223;28;20018;-66
2022/07/23 01:55:42;;;;;;;2.10;1.50;;;21.60;99.90;;;;;;1039232;28;20026;-66
2022/07/23 01:56:14;;;;;;;1.73;1.30;;;21.60;99.90;;;;;;1038668;28;20579;-66
2022/07/23 01:56:45;;;;;;;2.58;1.42;;;21.60;99.90;;;;;;1038986;28;20146;-66
2022/07/23 01:57:15;;;;;;;2.10;1.87;;;21.60;99.90;;;;;;1038521;28;20040;-66
2022/07/23 01:57:47;;;;;;;2.73;1.30;;;21.50;99.90;;;;;;1039144;28;20028;-66
2022/07/23 01:58:17;;;;;;;1.92;1.60;;;21.50;99.90;;;;;;1038140;28;20032;-66
2022/07/23 01:58:49;;;;;;;2.20;1.43;;;21.50;99.90;;;;;;1038778;28;20108;-66
2022/07/23 01:59:19;;;;;;;1.25;1.15;;;21.50;99.90;;;;;;1038279;28;20416;-66
2022/07/23 01:59:50;;;;;;;1.87;1.47;;;21.50;99.90;;;;;;1038522;28;20691;-66
2022/07/23 02:00:21;;;;;;;2.53;1.53;;;21.50;99.90;;;;;;1038279;28;20014;-66
2022/07/23 02:00:51;;;;;;;1.63;1.30;;;21.50;99.90;;;;;;1038845;28;20648;-65
2022/07/23 02:01:22;;;;;;;2.60;1.40;;;21.50;99.90;;;;;;1038271;28;20508;-65
2022/07/23 02:01:53;;;;;;;2.00;1.50;;;21.50;99.90;;;;;;1038835;28;20052;-65
2022/07/23 02:02:24;;;;;;;2.20;1.30;;;21.50;99.90;;;;;;1041483;28;20155;-66
2022/07/23 02:02:54;;;;;;;1.63;1.53;;;21.50;99.90;;;;;;1042511;28;20182;-66
2022/07/23 02:03:25;;;;;;;1.77;1.47;;;21.50;99.90;;;;;;1042599;28;20045;-66
2022/07/23 02:03:56;;;;;;;2.50;1.50;;;21.50;99.90;;;;;;1042599;28;20063;-66
2022/07/23 02:04:27;;;;;;;1.80;1.43;;;21.50;99.90;;;;;;1042648;28;20155;-66
2022/07/23 02:04:57;;;;;;;1.60;1.30;;;21.50;99.90;;;;;;1042681;28;20025;-65
2022/07/23 02:05:34;;;;;;;1.80;1.23;;;21.50;99.90;;;;;;1043138;28;20009;-65
2022/07/23 02:06:05;;;;;;;1.83;1.48;;;21.50;99.90;;;;;;1042724;28;20092;-65
2022/07/23 02:06:36;;;;;;;1.97;1.50;;;21.50;99.90;;;;;;1042672;28;20124;-65
2022/07/23 02:07:07;;;;;;;1.45;1.25;;;21.50;99.90;;;;;;1042573;28;20098;-65
2022/07/23 02:07:37;;;;;;;2.83;1.57;;;21.50;99.90;;;;;;1042548;28;20090;-67
2022/07/23 02:08:08;;;;;;;1.90;1.60;;;21.50;99.90;;;;;;1038410;28;20088;-65
2022/07/23 02:08:39;;;;;;;1.20;1.10;;;21.50;99.90;;;;;;1034666;28;20021;-66
2022/07/23 02:09:09;;;;;;;1.70;1.40;;;21.50;99.90;;;;;;1038386;28;20017;-66
2022/07/23 02:09:40;;;;;;;1.57;1.47;;;21.40;99.90;;;;;;1038446;28;20082;-65
2022/07/23 02:10:11;;;;;;;1.50;1.40;;;21.50;99.90;;;;;;1042389;28;20113;-65
2022/07/23 02:10:42;;;;;;;1.77;1.27;;;21.40;99.90;;;;;;1038513;28;20079;-65
2022/07/23 02:11:12;;;;;;;2.53;1.50;;;21.40;99.90;;;;;;1038273;28;20028;-65
2022/07/23 02:11:43;;;;;;;1.40;1.27;;;21.50;99.90;;;;;;1038730;28;20028;-66
2022/07/23 02:12:14;;;;;;;1.70;1.43;;;21.40;99.90;;;;;;1042309;28;20047;-65
2022/07/23 02:12:44;;;;;;;1.83;1.60;;;21.40;99.90;;;;;;1043220;28;20020;-65
2022/07/23 02:13:15;;;;;;;1.23;1.13;;;21.40;99.90;;;;;;1042140;28;20016;-65
2022/07/23 02:13:46;;;;;;;2.28;1.73;;;21.40;99.90;;;;;;1042952;28;20009;-65
2022/07/23 02:14:17;;;;;;;1.77;1.30;;;21.40;99.90;;;;;;1042333;28;20016;-65
2022/07/23 02:14:48;;;;;;;1.63;1.30;;;21.40;99.90;;;;;;1042837;28;20411;-66
2022/07/23 02:15:19;;;;;;;1.77;1.40;;;21.40;99.90;;;;;;1038501;28;20731;-65
2022/07/23 02:15:49;;;;;;;1.93;1.30;;;21.40;99.90;;;;;;1042894;28;20009;-65
2022/07/23 02:16:20;;;;;;;1.57;1.47;;;21.40;99.90;;;;;;1042419;28;20020;-65
2022/07/23 02:16:51;;;;;;;1.85;1.10;;;21.40;99.90;;;;;;1038898;28;20117;-65
2022/07/23 02:17:22;;;;;;;1.67;1.43;;;21.40;99.90;;;;;;1042196;28;20013;-65
2022/07/23 02:17:52;;;;;;;1.63;1.27;;;21.40;99.90;;;;;;1042709;28;20104;-65
2022/07/23 02:18:23;;;;;;;2.20;1.47;;;21.40;99.90;;;;;;1042447;28;20530;-65
2022/07/23 02:18:53;;;;;;;2.77;1.20;;;21.40;99.90;;;;;;1042821;28;20112;-65
2022/07/23 02:19:24;;;;;;;1.80;1.20;;;21.40;99.90;;;;;;1042727;28;20016;-64
2022/07/23 02:19:55;;;;;;;3.70;1.70;;;21.40;99.90;;;;;;1042955;28;20024;-65
2022/07/23 02:20:25;;;;;;;1.60;1.50;;;21.50;99.90;;;;;;1042826;28;20021;-65
2022/07/23 02:20:56;;;;;;;1.37;1.13;;;21.40;99.90;;;;;;1043137;28;20360;-67
2022/07/23 02:21:27;;;;;;;4.60;1.23;;;21.40;99.90;;;;;;1042777;28;20027;-64
2022/07/23 02:21:57;;;;;;;2.40;1.40;;;21.50;99.90;;;;;;1042984;28;20027;-65
2022/07/23 02:22:28;;;;;;;1.73;1.20;;;21.50;99.90;;;;;;1042487;28;20017;-65
2022/07/23 02:22:59;;;;;;;1.80;1.30;;;21.50;99.90;;;;;;1042539;28;20036;-65
2022/07/23 02:23:29;;;;;;;2.97;1.70;;;21.50;99.90;;;;;;1042407;28;20017;-66
2022/07/23 02:24:00;;;;;;;2.00;1.53;;;21.50;99.90;;;;;;1042664;28;20092;-65
2022/07/23 02:24:30;;;;;;;1.60;1.40;;;21.50;99.90;;;;;;1042547;28;20444;-65
2022/07/23 02:25:01;;;;;;;1.50;1.20;;;21.50;99.90;;;;;;1042519;28;20017;-66
2022/07/23 02:25:31;;;;;;;1.60;1.50;;;21.50;99.90;;;;;;1042923;28;20062;-65
2022/07/23 02:26:02;;;;;;;1.50;1.30;;;21.50;99.90;;;;;;1042971;28;20457;-65
2022/07/23 02:26:34;;;;;;;2.47;1.23;;;21.50;99.90;;;;;;1042475;28;20091;-66
2022/07/23 02:27:04;;;;;;;1.52;1.40;;;21.50;99.90;;;;;;1042746;28;20088;-66
2022/07/23 02:27:36;;;;;;;2.33;1.30;;;21.40;99.90;;;;;;1042668;28;20416;-66
2022/07/23 02:28:06;;;;;;;1.40;1.30;;;21.40;99.90;;;;;;1042629;28;20040;-65
2022/07/23 02:28:37;;;;;;;1.17;1.07;;;21.40;99.90;;;;;;1042850;28;20028;-65
2022/07/23 02:29:08;;;;;;;1.50;1.40;;;21.40;99.90;;;;;;1042915;28;20021;-66
2022/07/23 02:29:38;;;;;;;2.13;1.30;;;21.40;99.90;;;;;;1042906;28;20504;-65
2022/07/23 02:30:10;;;;;;;1.87;1.40;;;21.40;99.90;;;;;;1042710;28;20099;-65
2022/07/23 02:30:41;;;;;;;2.17;1.80;;;21.40;99.90;;;;;;1042692;28;20548;-65
2022/07/23 02:31:11;;;;;;;2.30;1.30;;;21.40;99.90;;;;;;1042299;28;20009;-66
2022/07/23 02:31:43;;;;;;;1.60;1.40;;;21.40;99.90;;;;;;1042832;28;20267;-67
2022/07/23 02:32:14;;;;;;;1.50;1.30;;;21.40;99.90;;;;;;1042158;28;20014;-66
2022/07/23 02:32:44;;;;;;;2.30;1.40;;;21.40;99.90;;;;;;1039631;28;20013;-66
2022/07/23 02:33:15;;;;;;;1.43;1.33;;;21.40;99.90;;;;;;1041825;28;20675;-66
2022/07/23 02:33:46;;;;;;;2.83;1.45;;;21.40;99.90;;;;;;1035312;28;20049;-66
2022/07/23 02:34:17;;;;;;;2.00;1.33;;;21.40;99.90;;;;;;1034933;28;20018;-66
2022/07/23 02:34:48;;;;;;;1.77;1.50;;;21.40;99.90;;;;;;1031363;28;20356;-65
2022/07/23 02:35:18;;;;;;;2.73;1.60;;;21.40;99.90;;;;;;1031004;28;20605;-66
2022/07/23 02:35:49;;;;;;;1.40;1.30;;;21.40;99.90;;;;;;1035506;28;20005;-66
2022/07/23 02:36:19;;;;;;;2.07;1.40;;;21.30;99.90;;;;;;1039231;28;20022;-65
2022/07/23 02:36:50;;;;;;;1.37;1.20;;;21.40;99.90;;;;;;1043605;28;20040;-66
2022/07/23 02:37:21;;;;;;;1.63;1.20;;;21.40;99.90;;;;;;1039431;28;20069;-66
2022/07/23 02:37:51;;;;;;;1.67;1.50;;;21.40;99.90;;;;;;1039882;28;20018;-65
2022/07/23 02:38:22;;;;;;;3.40;1.67;;;21.40;99.90;;;;;;1039512;28;20017;-66
2022/07/23 02:38:52;;;;;;;2.03;1.40;;;21.30;99.90;;;;;;1039832;28;20558;-65
2022/07/23 02:39:23;;;;;;;2.03;1.60;;;21.30;99.90;;;;;;1039369;28;20439;-66
2022/07/23 02:39:54;;;;;;;1.83;1.50;;;21.30;99.90;;;;;;1039379;28;20751;-66
2022/07/23 02:40:24;;;;;;;1.53;1.43;;;21.30;99.90;;;;;;1039162;28;20024;-66
2022/07/23 02:40:55;;;;;;;1.30;1.20;;;21.30;99.90;;;;;;1039442;28;20263;-66
2022/07/23 02:41:25;;;;;;;2.07;1.47;;;21.30;99.90;;;;;;1035104;28;20021;-65
2022/07/23 02:41:56;;;;;;;2.27;1.30;;;21.30;99.90;;;;;;1039386;28;20017;-65
2022/07/23 02:42:26;;;;;;;2.23;1.53;;;21.30;99.90;;;;;;1035057;28;20717;-65